Storm Events Database

Event Details

Event Hail
Magnitude 0.88 in.
State NEBRASKA
County/Area KEYA PAHA
WFO LBF
Begin Date 06/21/2007 17:41:00 CST-6
Begin Range 6
Begin Azimuth SE
Begin Location SPRINGVIEW
Begin Lat/Lon 42.76/-99.65
End Date 06/21/2007 17:41:00 CST-6
Deaths Direct/Indirect 0/0 (fatality details below, when available...)
Injuries Direct/Indirect 0/0
Property Damage 0.00K
Crop Damage 0.00K
Episode Narrative A surface front located across the Sandhills provided focus for outbreak of severe weather including numerous reports of tornadoes. Strong storms also dropped out of South Dakota and quickly turned tornadic. Additional storms moved out of Northeast Colorado and brought large hail to Southwest Nebraska.
Event Narrative


All events for this episode:

Location County/Zone St. Date Time T.Z. Type Mag Dth Inj PrD CrD
Totals: 0 0 354.00K 370.00K
WAUNETA CHASE CO. NE 06/21/2007 16:20 MST-7 Hail 0.75 in. 0 0 0.00K 0.00K
TRYON MCPHERSON CO. NE 06/21/2007 16:30 CST-6 Hail 1.25 in. 0 0 12.00K 0.00K
(LBF)BIRD FLD NORTH LINCOLN CO. NE 06/21/2007 17:29 CST-6 Hail 0.88 in. 0 0 0.00K 0.00K
SPRINGVIEW KEYA PAHA CO. NE 06/21/2007 17:41 CST-6 Hail 0.88 in. 0 0 0.00K 0.00K
STAPLETON LOGAN CO. NE 06/21/2007 17:45 CST-6 Hail 0.88 in. 0 0 0.00K 0.00K
BASSETT ROCK CO. NE 06/21/2007 18:14 CST-6 Hail 2.00 in. 0 0 45.00K 75.00K
BASSETT ROCK CO. NE 06/21/2007 18:30 CST-6 Funnel Cloud 0 0 0.00K 0.00K
HAY SPGS SHERIDAN CO. NE 06/21/2007 18:35 MST-7 Hail 0.88 in. 0 0 0.00K 0.00K
CALLAWAY CUSTER CO. NE 06/21/2007 18:35 CST-6 Hail 0.88 in. 0 0 0.00K 0.00K
BASSETT ROCK CO. NE 06/21/2007 18:35 CST-6 Hail 1.50 in. 0 0 25.00K 35.00K
ANTIOCH SHERIDAN CO. NE 06/21/2007 18:35 MST-7 Hail 1.00 in. 0 0 0.00K 0.00K
ANTIOCH SHERIDAN CO. NE 06/21/2007 18:35 MST-7 Thunderstorm Wind 58 kts. EG 0 0 12.00K 0.00K
BASSETT ROCK CO. NE 06/21/2007 18:42 CST-6 Hail 1.75 in. 0 0 40.00K 50.00K
BINGHAM SHERIDAN CO. NE 06/21/2007 18:50 MST-7 Hail 1.00 in. 0 0 0.00K 0.00K
VALENTINE CHERRY CO. NE 06/21/2007 18:55 CST-6 Hail 1.75 in. 0 0 35.00K 55.00K
VALENTINE CHERRY CO. NE 06/21/2007 19:02 CST-6 Hail 1.75 in. 0 0 25.00K 35.00K
MERRITT RES CHERRY CO. NE 06/21/2007 19:05 CST-6 Tornado EF0 0 0 0.00K 0.00K
NEWPORT ROCK CO. NE 06/21/2007 19:07 CST-6 Hail 1.75 in. 0 0 35.00K 45.00K
ASHBY GRANT CO. NE 06/21/2007 19:13 MST-7 Hail 1.00 in. 0 0 0.00K 0.00K
CODY CHERRY CO. NE 06/21/2007 19:15 CST-6 Tornado EF1 0 0 75.00K 0.00K
MERRITT RES CHERRY CO. NE 06/21/2007 19:25 CST-6 Hail 1.00 in. 0 0 0.00K 0.00K
ASHBY GRANT CO. NE 06/21/2007 19:26 MST-7 Hail 1.00 in. 0 0 0.00K 0.00K
ROSE ROCK CO. NE 06/21/2007 19:30 CST-6 Hail 1.75 in. 0 0 35.00K 55.00K
ROSE ROCK CO. NE 06/21/2007 20:15 CST-6 Hail 1.75 in. 0 0 15.00K 20.00K
Totals: 0 0 354.00K 370.00K